sensor_id;sensor_type;location;lat;lon;timestamp;temperature;humidity
32322;DHT22;61553;48.994;8.940;2022-11-15T00:00:17;7.50;99.90
32322;DHT22;61553;48.994;8.940;2022-11-15T00:02:43;7.40;99.90
32322;DHT22;61553;48.994;8.940;2022-11-15T00:05:09;7.30;99.90
32322;DHT22;61553;48.994;8.940;2022-11-15T00:07:34;7.30;99.90
32322;DHT22;61553;48.994;8.940;2022-11-15T00:10:00;7.20;99.90
32322;DHT22;61553;48.994;8.940;2022-11-15T00:12:27;7.20;99.90
32322;DHT22;61553;48.994;8.940;2022-11-15T00:14:53;7.20;99.90
32322;DHT22;61553;48.994;8.940;2022-11-15T00:17:19;7.10;99.90
32322;DHT22;61553;48.994;8.940;2022-11-15T00:19:45;7.10;99.90
32322;DHT22;61553;48.994;8.940;2022-11-15T00:22:10;7.20;99.90
32322;DHT22;61553;48.994;8.940;2022-11-15T00:24:36;7.30;99.90
32322;DHT22;61553;48.994;8.940;2022-11-15T00:27:02;7.40;99.90
32322;DHT22;61553;48.994;8.940;2022-11-15T00:29:27;7.40;99.90
32322;DHT22;61553;48.994;8.940;2022-11-15T00:31:53;7.30;99.90
32322;DHT22;61553;48.994;8.940;2022-11-15T00:34:19;7.30;99.90
32322;DHT22;61553;48.994;8.940;2022-11-15T00:36:44;7.30;99.90
32322;DHT22;61553;48.994;8.940;2022-11-15T00:39:10;7.30;99.90
32322;DHT22;61553;48.994;8.940;2022-11-15T00:41:36;7.30;99.90
32322;DHT22;61553;48.994;8.940;2022-11-15T00:44:01;7.30;99.90
32322;DHT22;61553;48.994;8.940;2022-11-15T00:46:27;7.30;99.90
32322;DHT22;61553;48.994;8.940;2022-11-15T00:48:52;7.30;99.90
32322;DHT22;61553;48.994;8.940;2022-11-15T00:51:18;7.20;99.90
32322;DHT22;61553;48.994;8.940;2022-11-15T00:53:44;7.20;99.90
32322;DHT22;61553;48.994;8.940;2022-11-15T00:56:10;7.10;99.90
32322;DHT22;61553;48.994;8.940;2022-11-15T00:58:35;7.10;99.90
32322;DHT22;61553;48.994;8.940;2022-11-15T01:01:09;7.00;99.90
32322;DHT22;61553;48.994;8.940;2022-11-15T01:03:36;6.90;99.90
32322;DHT22;61553;48.994;8.940;2022-11-15T01:06:02;6.80;99.90
32322;DHT22;61553;48.994;8.940;2022-11-15T01:08:28;6.70;99.90
32322;DHT22;61553;48.994;8.940;2022-11-15T01:10:53;6.80;99.90
32322;DHT22;61553;48.994;8.940;2022-11-15T01:13:19;6.90;99.90
32322;DHT22;61553;48.994;8.940;2022-11-15T01:15:45;6.90;99.90
32322;DHT22;61553;48.994;8.940;2022-11-15T01:18:10;6.90;99.90
32322;DHT22;61553;48.994;8.940;2022-11-15T01:20:45;6.80;99.90
32322;DHT22;61553;48.994;8.940;2022-11-15T01:23:11;6.60;99.90
32322;DHT22;61553;48.994;8.940;2022-11-15T01:25:36;6.50;99.90
32322;DHT22;61553;48.994;8.940;2022-11-15T01:28:02;6.30;99.90
32322;DHT22;61553;48.994;8.940;2022-11-15T01:30:28;6.20;99.90
32322;DHT22;61553;48.994;8.940;2022-11-15T01:32:53;6.00;99.90
32322;DHT22;61553;48.994;8.940;2022-11-15T01:35:19;5.90;99.90
32322;DHT22;61553;48.994;8.940;2022-11-15T01:37:45;5.70;99.90
32322;DHT22;61553;48.994;8.940;2022-11-15T01:40:11;5.60;99.90
32322;DHT22;61553;48.994;8.940;2022-11-15T01:42:36;5.50;99.90
32322;DHT22;61553;48.994;8.940;2022-11-15T01:45:02;5.40;99.90
32322;DHT22;61553;48.994;8.940;2022-11-15T01:47:32;5.40;99.90
32322;DHT22;61553;48.994;8.940;2022-11-15T01:50:00;5.40;99.90
32322;DHT22;61553;48.994;8.940;2022-11-15T01:52:28;5.50;99.90
32322;DHT22;61553;48.994;8.940;2022-11-15T01:55:18;5.40;99.90
32322;DHT22;61553;48.994;8.940;2022-11-15T01:57:46;5.40;99.90
32322;DHT22;61553;48.994;8.940;2022-11-15T02:00:13;5.50;99.90
32322;DHT22;61553;48.994;8.940;2022-11-15T02:02:39;5.50;99.90
32322;DHT22;61553;48.994;8.940;2022-11-15T02:05:05;5.70;99.90
32322;DHT22;61553;48.994;8.940;2022-11-15T02:07:32;5.80;99.90
32322;DHT22;61553;48.994;8.940;2022-11-15T02:10:04;5.80;99.90
32322;DHT22;61553;48.994;8.940;2022-11-15T02:12:31;5.80;99.90
32322;DHT22;61553;48.994;8.940;2022-11-15T02:14:57;5.80;99.90
32322;DHT22;61553;48.994;8.940;2022-11-15T02:23:15;5.60;99.90
32322;DHT22;61553;48.994;8.940;2022-11-15T02:29:11;5.50;99.90
32322;DHT22;61553;48.994;8.940;2022-11-15T02:31:51;5.50;99.90
32322;DHT22;61553;48.994;8.940;2022-11-15T02:37:42;5.80;99.90
32322;DHT22;61553;48.994;8.940;2022-11-15T02:40:23;5.90;99.90
32322;DHT22;61553;48.994;8.940;2022-11-15T02:43:09;6.10;99.90
32322;DHT22;61553;48.994;8.940;2022-11-15T02:49:16;6.20;99.90
32322;DHT22;61553;48.994;8.940;2022-11-15T02:51:44;6.30;99.90
32322;DHT22;61553;48.994;8.940;2022-11-15T02:54:17;6.30;99.90
32322;DHT22;61553;48.994;8.940;2022-11-15T02:56:45;6.30;99.90
32322;DHT22;61553;48.994;8.940;2022-11-15T02:59:23;6.40;99.90
32322;DHT22;61553;48.994;8.940;2022-11-15T03:10:31;6.40;99.90
32322;DHT22;61553;48.994;8.940;2022-11-15T03:15:54;6.40;99.90
32322;DHT22;61553;48.994;8.940;2022-11-15T03:18:35;6.60;99.90
32322;DHT22;61553;48.994;8.940;2022-11-15T03:21:05;6.60;99.90
32322;DHT22;61553;48.994;8.940;2022-11-15T03:23:33;6.60;99.90
32322;DHT22;61553;48.994;8.940;2022-11-15T03:26:00;6.80;99.90
32322;DHT22;61553;48.994;8.940;2022-11-15T03:28:47;6.80;99.90
32322;DHT22;61553;48.994;8.940;2022-11-15T03:31:15;6.60;99.90
32322;DHT22;61553;48.994;8.940;2022-11-15T03:34:16;6.60;99.90
32322;DHT22;61553;48.994;8.940;2022-11-15T03:36:44;6.50;99.90
32322;DHT22;61553;48.994;8.940;2022-11-15T03:39:12;6.50;99.90
32322;DHT22;61553;48.994;8.940;2022-11-15T03:41:45;6.60;99.90
32322;DHT22;61553;48.994;8.940;2022-11-15T03:46:58;6.80;99.90
32322;DHT22;61553;48.994;8.940;2022-11-15T03:49:29;6.90;99.90
32322;DHT22;61553;48.994;8.940;2022-11-15T03:51:57;7.00;99.90
32322;DHT22;61553;48.994;8.940;2022-11-15T03:54:24;7.10;99.90
32322;DHT22;61553;48.994;8.940;2022-11-15T03:56:49;7.10;99.90
32322;DHT22;61553;48.994;8.940;2022-11-15T03:59:15;7.20;99.90
32322;DHT22;61553;48.994;8.940;2022-11-15T04:01:40;7.30;99.90
32322;DHT22;61553;48.994;8.940;2022-11-15T04:04:06;7.40;99.90
32322;DHT22;61553;48.994;8.940;2022-11-15T04:06:32;7.40;99.90
32322;DHT22;61553;48.994;8.940;2022-11-15T04:08:57;7.50;99.90
32322;DHT22;61553;48.994;8.940;2022-11-15T04:11:23;7.60;99.90
32322;DHT22;61553;48.994;8.940;2022-11-15T04:13:48;7.60;99.90
32322;DHT22;61553;48.994;8.940;2022-11-15T04:16:14;7.60;99.90
32322;DHT22;61553;48.994;8.940;2022-11-15T04:18:40;7.60;99.90
32322;DHT22;61553;48.994;8.940;2022-11-15T04:21:06;7.70;99.90
32322;DHT22;61553;48.994;8.940;2022-11-15T04:23:51;7.80;99.90
32322;DHT22;61553;48.994;8.940;2022-11-15T04:26:35;7.80;99.90
32322;DHT22;61553;48.994;8.940;2022-11-15T04:29:00;7.80;99.90
32322;DHT22;61553;48.994;8.940;2022-11-15T04:32:06;7.70;99.90
32322;DHT22;61553;48.994;8.940;2022-11-15T04:34:32;7.70;99.90
32322;DHT22;61553;48.994;8.940;2022-11-15T04:36:58;7.70;99.90
32322;DHT22;61553;48.994;8.940;2022-11-15T04:39:41;7.60;99.90
32322;DHT22;61553;48.994;8.940;2022-11-15T04:42:07;7.60;99.90
32322;DHT22;61553;48.994;8.940;2022-11-15T04:44:33;7.70;99.90
32322;DHT22;61553;48.994;8.940;2022-11-15T04:46:59;7.70;99.90
32322;DHT22;61553;48.994;8.940;2022-11-15T04:49:26;7.80;99.90
32322;DHT22;61553;48.994;8.940;2022-11-15T04:51:51;7.80;99.90
32322;DHT22;61553;48.994;8.940;2022-11-15T04:54:17;7.80;99.90
32322;DHT22;61553;48.994;8.940;2022-11-15T04:56:43;7.70;99.90
32322;DHT22;61553;48.994;8.940;2022-11-15T04:59:08;7.60;99.90
32322;DHT22;61553;48.994;8.940;2022-11-15T05:01:34;7.50;99.90
32322;DHT22;61553;48.994;8.940;2022-11-15T05:03:59;7.50;99.90
32322;DHT22;61553;48.994;8.940;2022-11-15T05:06:43;7.40;99.90
32322;DHT22;61553;48.994;8.940;2022-11-15T05:09:09;7.30;99.90
32322;DHT22;61553;48.994;8.940;2022-11-15T05:11:35;7.20;99.90
32322;DHT22;61553;48.994;8.940;2022-11-15T05:14:01;7.10;99.90
32322;DHT22;61553;48.994;8.940;2022-11-15T05:16:26;7.00;99.90
32322;DHT22;61553;48.994;8.940;2022-11-15T05:18:53;6.90;99.90
32322;DHT22;61553;48.994;8.940;2022-11-15T05:21:19;6.90;99.90
32322;DHT22;61553;48.994;8.940;2022-11-15T05:23:45;6.90;99.90
32322;DHT22;61553;48.994;8.940;2022-11-15T05:26:11;7.00;99.90
32322;DHT22;61553;48.994;8.940;2022-11-15T05:28:37;7.00;99.90
32322;DHT22;61553;48.994;8.940;2022-11-15T05:31:08;7.00;99.90
32322;DHT22;61553;48.994;8.940;2022-11-15T05:33:36;6.90;99.90
32322;DHT22;61553;48.994;8.940;2022-11-15T05:38:49;6.80;99.90
32322;DHT22;61553;48.994;8.940;2022-11-15T05:41:17;6.90;99.90
32322;DHT22;61553;48.994;8.940;2022-11-15T05:43:44;6.90;99.90
32322;DHT22;61553;48.994;8.940;2022-11-15T05:46:11;6.80;99.90
32322;DHT22;61553;48.994;8.940;2022-11-15T05:48:41;6.90;99.90
32322;DHT22;61553;48.994;8.940;2022-11-15T05:51:08;7.10;99.90
32322;DHT22;61553;48.994;8.940;2022-11-15T05:53:34;7.20;99.90
32322;DHT22;61553;48.994;8.940;2022-11-15T05:56:03;7.30;99.90
32322;DHT22;61553;48.994;8.940;2022-11-15T05:58:33;7.30;99.90
32322;DHT22;61553;48.994;8.940;2022-11-15T06:00:59;7.30;99.90
32322;DHT22;61553;48.994;8.940;2022-11-15T06:03:25;7.30;99.90
32322;DHT22;61553;48.994;8.940;2022-11-15T06:05:51;7.40;99.90
32322;DHT22;61553;48.994;8.940;2022-11-15T06:08:16;7.40;99.90
32322;DHT22;61553;48.994;8.940;2022-11-15T06:10:42;7.40;99.90
32322;DHT22;61553;48.994;8.940;2022-11-15T06:13:08;7.60;99.90
32322;DHT22;61553;48.994;8.940;2022-11-15T06:15:34;7.60;99.90
32322;DHT22;61553;48.994;8.940;2022-11-15T06:18:00;7.80;99.90
32322;DHT22;61553;48.994;8.940;2022-11-15T06:20:27;7.80;99.90
32322;DHT22;61553;48.994;8.940;2022-11-15T06:23:01;7.80;99.90
32322;DHT22;61553;48.994;8.940;2022-11-15T06:25:27;7.90;99.90
32322;DHT22;61553;48.994;8.940;2022-11-15T06:27:55;7.90;99.90
32322;DHT22;61553;48.994;8.940;2022-11-15T06:30:21;8.00;99.90
32322;DHT22;61553;48.994;8.940;2022-11-15T06:32:47;7.90;99.90
32322;DHT22;61553;48.994;8.940;2022-11-15T06:35:13;7.90;99.90
32322;DHT22;61553;48.994;8.940;2022-11-15T06:37:39;7.90;99.90
32322;DHT22;61553;48.994;8.940;2022-11-15T06:40:06;7.90;99.90
32322;DHT22;61553;48.994;8.940;2022-11-15T06:42:32;8.00;99.90
32322;DHT22;61553;48.994;8.940;2022-11-15T06:44:58;8.00;99.90
32322;DHT22;61553;48.994;8.940;2022-11-15T06:47:24;8.00;99.90
32322;DHT22;61553;48.994;8.940;2022-11-15T06:49:49;8.00;99.90
32322;DHT22;61553;48.994;8.940;2022-11-15T06:52:15;8.00;99.90
32322;DHT22;61553;48.994;8.940;2022-11-15T06:54:43;8.10;99.90
32322;DHT22;61553;48.994;8.940;2022-11-15T06:57:09;8.10;99.90
32322;DHT22;61553;48.994;8.940;2022-11-15T06:59:36;8.20;99.90
32322;DHT22;61553;48.994;8.940;2022-11-15T07:02:01;8.20;99.90
32322;DHT22;61553;48.994;8.940;2022-11-15T07:04:27;8.20;99.90
32322;DHT22;61553;48.994;8.940;2022-11-15T07:06:53;8.20;99.90
32322;DHT22;61553;48.994;8.940;2022-11-15T07:09:18;8.10;99.90
32322;DHT22;61553;48.994;8.940;2022-11-15T07:11:44;8.20;99.90
32322;DHT22;61553;48.994;8.940;2022-11-15T07:14:09;8.30;99.90
32322;DHT22;61553;48.994;8.940;2022-11-15T07:16:36;8.30;99.90
32322;DHT22;61553;48.994;8.940;2022-11-15T07:19:02;8.40;99.90
32322;DHT22;61553;48.994;8.940;2022-11-15T07:21:28;8.50;99.90
32322;DHT22;61553;48.994;8.940;2022-11-15T07:23:54;8.60;99.90
32322;DHT22;61553;48.994;8.940;2022-11-15T07:26:20;8.90;99.90
32322;DHT22;61553;48.994;8.940;2022-11-15T07:28:45;9.20;99.90
32322;DHT22;61553;48.994;8.940;2022-11-15T07:31:11;9.40;99.90
32322;DHT22;61553;48.994;8.940;2022-11-15T07:33:37;9.70;99.90
32322;DHT22;61553;48.994;8.940;2022-11-15T07:36:05;9.90;99.90
32322;DHT22;61553;48.994;8.940;2022-11-15T07:38:32;10.00;99.90
32322;DHT22;61553;48.994;8.940;2022-11-15T07:41:00;10.10;99.90
32322;DHT22;61553;48.994;8.940;2022-11-15T07:43:26;10.10;99.90
32322;DHT22;61553;48.994;8.940;2022-11-15T07:45:56;10.10;99.90
32322;DHT22;61553;48.994;8.940;2022-11-15T07:48:22;10.10;99.90
32322;DHT22;61553;48.994;8.940;2022-11-15T07:50:48;10.30;99.90
32322;DHT22;61553;48.994;8.940;2022-11-15T07:53:14;10.30;99.90
32322;DHT22;61553;48.994;8.940;2022-11-15T07:55:40;10.30;99.90
32322;DHT22;61553;48.994;8.940;2022-11-15T07:58:09;10.30;99.90
32322;DHT22;61553;48.994;8.940;2022-11-15T08:00:35;10.20;99.90
32322;DHT22;61553;48.994;8.940;2022-11-15T08:03:12;10.20;99.90
32322;DHT22;61553;48.994;8.940;2022-11-15T08:05:39;10.10;99.90
32322;DHT22;61553;48.994;8.940;2022-11-15T08:08:06;10.20;99.90
32322;DHT22;61553;48.994;8.940;2022-11-15T08:10:33;10.30;99.90
32322;DHT22;61553;48.994;8.940;2022-11-15T08:13:06;10.30;99.90
32322;DHT22;61553;48.994;8.940;2022-11-15T08:15:33;10.40;99.90
32322;DHT22;61553;48.994;8.940;2022-11-15T08:18:01;10.60;99.90
32322;DHT22;61553;48.994;8.940;2022-11-15T08:20:28;10.70;99.90
32322;DHT22;61553;48.994;8.940;2022-11-15T08:22:59;10.90;99.90
32322;DHT22;61553;48.994;8.940;2022-11-15T08:25:26;10.90;99.90
32322;DHT22;61553;48.994;8.940;2022-11-15T08:27:57;10.90;99.90
32322;DHT22;61553;48.994;8.940;2022-11-15T08:30:23;11.00;99.90
32322;DHT22;61553;48.994;8.940;2022-11-15T08:32:50;10.90;99.90
32322;DHT22;61553;48.994;8.940;2022-11-15T08:35:16;11.00;99.90
32322;DHT22;61553;48.994;8.940;2022-11-15T08:37:42;11.00;99.90
32322;DHT22;61553;48.994;8.940;2022-11-15T08:40:08;11.10;99.90
32322;DHT22;61553;48.994;8.940;2022-11-15T08:42:35;11.30;99.90
32322;DHT22;61553;48.994;8.940;2022-11-15T08:45:01;11.40;99.90
32322;DHT22;61553;48.994;8.940;2022-11-15T08:47:26;11.40;99.90
32322;DHT22;61553;48.994;8.940;2022-11-15T08:49:52;11.40;99.90
32322;DHT22;61553;48.994;8.940;2022-11-15T08:52:18;11.50;99.90
32322;DHT22;61553;48.994;8.940;2022-11-15T08:54:44;11.50;99.90
32322;DHT22;61553;48.994;8.940;2022-11-15T08:57:09;11.60;99.90
32322;DHT22;61553;48.994;8.940;2022-11-15T08:59:36;11.70;99.90
32322;DHT22;61553;48.994;8.940;2022-11-15T09:02:02;11.80;99.90
32322;DHT22;61553;48.994;8.940;2022-11-15T09:04:28;11.90;99.90
32322;DHT22;61553;48.994;8.940;2022-11-15T09:06:54;12.00;99.90
32322;DHT22;61553;48.994;8.940;2022-11-15T09:09:20;12.10;99.90
32322;DHT22;61553;48.994;8.940;2022-11-15T09:11:45;12.20;99.90
32322;DHT22;61553;48.994;8.940;2022-11-15T09:14:12;12.20;99.90
32322;DHT22;61553;48.994;8.940;2022-11-15T09:16:38;12.20;99.90
32322;DHT22;61553;48.994;8.940;2022-11-15T09:19:03;12.40;99.90
32322;DHT22;61553;48.994;8.940;2022-11-15T09:21:30;12.50;99.90
32322;DHT22;61553;48.994;8.940;2022-11-15T09:23:56;12.50;99.90
32322;DHT22;61553;48.994;8.940;2022-11-15T09:26:22;12.60;99.90
32322;DHT22;61553;48.994;8.940;2022-11-15T09:28:48;12.60;99.90
32322;DHT22;61553;48.994;8.940;2022-11-15T09:31:13;12.50;99.90
32322;DHT22;61553;48.994;8.940;2022-11-15T09:33:39;12.60;99.90
32322;DHT22;61553;48.994;8.940;2022-11-15T09:36:07;12.60;99.90
32322;DHT22;61553;48.994;8.940;2022-11-15T09:38:33;12.50;99.90
32322;DHT22;61553;48.994;8.940;2022-11-15T09:41:29;12.60;99.90
32322;DHT22;61553;48.994;8.940;2022-11-15T09:49:26;12.90;99.90
32322;DHT22;61553;48.994;8.940;2022-11-15T09:51:54;13.00;99.90
32322;DHT22;61553;48.994;8.940;2022-11-15T09:54:40;13.20;99.90
32322;DHT22;61553;48.994;8.940;2022-11-15T09:57:13;13.20;99.90
32322;DHT22;61553;48.994;8.940;2022-11-15T10:03:19;13.20;99.90
32322;DHT22;61553;48.994;8.940;2022-11-15T10:08:30;13.00;99.90
32322;DHT22;61553;48.994;8.940;2022-11-15T10:11:18;12.80;99.90
32322;DHT22;61553;48.994;8.940;2022-11-15T10:13:46;12.70;99.90
32322;DHT22;61553;48.994;8.940;2022-11-15T10:24:45;12.50;99.90
32322;DHT22;61553;48.994;8.940;2022-11-15T10:27:17;12.50;99.90
32322;DHT22;61553;48.994;8.940;2022-11-15T10:29:47;12.50;99.90
32322;DHT22;61553;48.994;8.940;2022-11-15T10:32:15;12.50;99.90
32322;DHT22;61553;48.994;8.940;2022-11-15T10:34:42;12.60;99.90
32322;DHT22;61553;48.994;8.940;2022-11-15T10:37:07;12.60;99.90
32322;DHT22;61553;48.994;8.940;2022-11-15T10:39:33;12.60;99.90
32322;DHT22;61553;48.994;8.940;2022-11-15T10:42:15;12.60;99.90
32322;DHT22;61553;48.994;8.940;2022-11-15T10:44:42;12.60;99.90
32322;DHT22;61553;48.994;8.940;2022-11-15T10:47:30;12.60;99.90
32322;DHT22;61553;48.994;8.940;2022-11-15T10:50:27;12.70;99.90
32322;DHT22;61553;48.994;8.940;2022-11-15T10:52:50;12.70;99.90
32322;DHT22;61553;48.994;8.940;2022-11-15T10:57:52;12.70;99.90
32322;DHT22;61553;48.994;8.940;2022-11-15T11:05:44;12.90;99.90
32322;DHT22;61553;48.994;8.940;2022-11-15T11:10:36;13.00;99.90
32322;DHT22;61553;48.994;8.940;2022-11-15T11:13:26;13.10;99.90
32322;DHT22;61553;48.994;8.940;2022-11-15T11:18:34;13.00;99.90
32322;DHT22;61553;48.994;8.940;2022-11-15T11:21:18;13.00;99.90
32322;DHT22;61553;48.994;8.940;2022-11-15T11:26:58;13.10;99.90
32322;DHT22;61553;48.994;8.940;2022-11-15T11:30:03;13.10;99.90
32322;DHT22;61553;48.994;8.940;2022-11-15T11:41:15;13.40;99.90
32322;DHT22;61553;48.994;8.940;2022-11-15T11:49:12;13.70;99.90
32322;DHT22;61553;48.994;8.940;2022-11-15T11:51:49;13.90;99.90
32322;DHT22;61553;48.994;8.940;2022-11-15T11:54:24;14.00;99.90
32322;DHT22;61553;48.994;8.940;2022-11-15T11:56:52;14.10;99.90
32322;DHT22;61553;48.994;8.940;2022-11-15T11:59:25;14.20;99.90
32322;DHT22;61553;48.994;8.940;2022-11-15T12:01:54;14.40;99.90
32322;DHT22;61553;48.994;8.940;2022-11-15T12:09:47;14.50;99.90
32322;DHT22;61553;48.994;8.940;2022-11-15T12:15:17;14.50;99.90
32322;DHT22;61553;48.994;8.940;2022-11-15T12:17:44;14.70;99.90
32322;DHT22;61553;48.994;8.940;2022-11-15T12:25:36;14.50;99.90
32322;DHT22;61553;48.994;8.940;2022-11-15T12:31:15;14.40;99.90
32322;DHT22;61553;48.994;8.940;2022-11-15T12:33:47;14.30;99.90
32322;DHT22;61553;48.994;8.940;2022-11-15T12:38:58;14.10;99.90
32322;DHT22;61553;48.994;8.940;2022-11-15T12:41:28;14.10;99.90
32322;DHT22;61553;48.994;8.940;2022-11-15T12:43:55;14.00;99.90
32322;DHT22;61553;48.994;8.940;2022-11-15T13:22:42;14.30;99.90
32322;DHT22;61553;48.994;8.940;2022-11-15T13:28:30;14.50;99.90
32322;DHT22;61553;48.994;8.940;2022-11-15T13:30:58;14.50;99.90
32322;DHT22;61553;48.994;8.940;2022-11-15T13:33:35;14.50;99.90
32322;DHT22;61553;48.994;8.940;2022-11-15T13:36:06;14.50;99.90
32322;DHT22;61553;48.994;8.940;2022-11-15T13:38:38;14.50;99.90
32322;DHT22;61553;48.994;8.940;2022-11-15T13:41:46;14.50;99.90
32322;DHT22;61553;48.994;8.940;2022-11-15T13:44:26;14.60;99.90
32322;DHT22;61553;48.994;8.940;2022-11-15T13:47:15;14.60;99.90
32322;DHT22;61553;48.994;8.940;2022-11-15T13:49:41;14.60;99.90
32322;DHT22;61553;48.994;8.940;2022-11-15T13:52:10;14.60;99.90
32322;DHT22;61553;48.994;8.940;2022-11-15T13:54:59;14.70;99.90
32322;DHT22;61553;48.994;8.940;2022-11-15T13:57:43;14.60;99.90
32322;DHT22;61553;48.994;8.940;2022-11-15T14:00:34;14.60;99.90
32322;DHT22;61553;48.994;8.940;2022-11-15T14:03:11;14.50;99.90
32322;DHT22;61553;48.994;8.940;2022-11-15T14:05:39;14.50;99.90
32322;DHT22;61553;48.994;8.940;2022-11-15T14:08:22;14.40;99.90
32322;DHT22;61553;48.994;8.940;2022-11-15T14:11:09;14.30;99.90
32322;DHT22;61553;48.994;8.940;2022-11-15T14:13:38;14.30;99.90
32322;DHT22;61553;48.994;8.940;2022-11-15T14:16:18;14.20;99.90
32322;DHT22;61553;48.994;8.940;2022-11-15T14:18:50;14.10;99.90
32322;DHT22;61553;48.994;8.940;2022-11-15T14:21:16;14.10;99.90
32322;DHT22;61553;48.994;8.940;2022-11-15T14:23:42;14.00;99.90
32322;DHT22;61553;48.994;8.940;2022-11-15T14:26:29;14.00;99.90
32322;DHT22;61553;48.994;8.940;2022-11-15T14:28:55;13.90;99.90
32322;DHT22;61553;48.994;8.940;2022-11-15T14:31:21;13.90;99.90
32322;DHT22;61553;48.994;8.940;2022-11-15T14:33:50;13.90;99.90
32322;DHT22;61553;48.994;8.940;2022-11-15T14:36:20;13.90;99.90
32322;DHT22;61553;48.994;8.940;2022-11-15T14:38:46;13.90;99.90
32322;DHT22;61553;48.994;8.940;2022-11-15T14:41:24;13.80;99.90
32322;DHT22;61553;48.994;8.940;2022-11-15T14:43:51;13.80;99.90
32322;DHT22;61553;48.994;8.940;2022-11-15T14:46:17;13.70;99.90
32322;DHT22;61553;48.994;8.940;2022-11-15T14:48:43;13.70;99.90
32322;DHT22;61553;48.994;8.940;2022-11-15T14:51:12;13.60;99.90
32322;DHT22;61553;48.994;8.940;2022-11-15T14:53:38;13.60;99.90
32322;DHT22;61553;48.994;8.940;2022-11-15T14:56:04;13.60;99.90
32322;DHT22;61553;48.994;8.940;2022-11-15T14:58:30;13.60;99.90
32322;DHT22;61553;48.994;8.940;2022-11-15T15:00:55;13.50;99.90
32322;DHT22;61553;48.994;8.940;2022-11-15T15:03:21;13.60;99.90
32322;DHT22;61553;48.994;8.940;2022-11-15T15:05:47;13.50;99.90
32322;DHT22;61553;48.994;8.940;2022-11-15T15:08:12;13.40;99.90
32322;DHT22;61553;48.994;8.940;2022-11-15T15:10:44;13.40;99.90
32322;DHT22;61553;48.994;8.940;2022-11-15T15:13:22;13.20;99.90
32322;DHT22;61553;48.994;8.940;2022-11-15T15:15:49;13.20;99.90
32322;DHT22;61553;48.994;8.940;2022-11-15T15:18:15;13.20;99.90
32322;DHT22;61553;48.994;8.940;2022-11-15T15:20:42;13.10;99.90
32322;DHT22;61553;48.994;8.940;2022-11-15T15:23:18;13.10;99.90
32322;DHT22;61553;48.994;8.940;2022-11-15T15:25:45;13.10;99.90
32322;DHT22;61553;48.994;8.940;2022-11-15T15:28:12;13.00;99.90
32322;DHT22;61553;48.994;8.940;2022-11-15T15:30:37;12.90;99.90
32322;DHT22;61553;48.994;8.940;2022-11-15T15:33:03;12.80;99.90
32322;DHT22;61553;48.994;8.940;2022-11-15T15:35:31;12.80;99.90
32322;DHT22;61553;48.994;8.940;2022-11-15T15:37:57;12.70;99.90
32322;DHT22;61553;48.994;8.940;2022-11-15T15:40:24;12.60;99.90
32322;DHT22;61553;48.994;8.940;2022-11-15T15:42:51;12.50;99.90
32322;DHT22;61553;48.994;8.940;2022-11-15T15:45:17;12.40;99.90
32322;DHT22;61553;48.994;8.940;2022-11-15T15:47:44;12.30;99.90
32322;DHT22;61553;48.994;8.940;2022-11-15T15:50:26;12.30;99.90
32322;DHT22;61553;48.994;8.940;2022-11-15T15:52:54;12.20;99.90
32322;DHT22;61553;48.994;8.940;2022-11-15T15:55:20;12.20;99.90
32322;DHT22;61553;48.994;8.940;2022-11-15T15:57:47;12.10;99.90
32322;DHT22;61553;48.994;8.940;2022-11-15T16:00:13;12.10;99.90
32322;DHT22;61553;48.994;8.940;2022-11-15T16:02:40;12.10;99.90
32322;DHT22;61553;48.994;8.940;2022-11-15T16:05:06;12.00;99.90
32322;DHT22;61553;48.994;8.940;2022-11-15T16:07:32;12.00;99.90
32322;DHT22;61553;48.994;8.940;2022-11-15T16:09:58;12.10;99.90
32322;DHT22;61553;48.994;8.940;2022-11-15T16:12:34;12.10;99.90
32322;DHT22;61553;48.994;8.940;2022-11-15T16:15:01;12.10;99.90
32322;DHT22;61553;48.994;8.940;2022-11-15T16:17:30;12.10;99.90
32322;DHT22;61553;48.994;8.940;2022-11-15T16:19:56;12.10;99.90
32322;DHT22;61553;48.994;8.940;2022-11-15T16:22:22;12.00;99.90
32322;DHT22;61553;48.994;8.940;2022-11-15T16:24:48;12.00;99.90
32322;DHT22;61553;48.994;8.940;2022-11-15T16:27:20;12.00;99.90
32322;DHT22;61553;48.994;8.940;2022-11-15T16:29:46;12.00;99.90
32322;DHT22;61553;48.994;8.940;2022-11-15T16:32:13;12.00;99.90
32322;DHT22;61553;48.994;8.940;2022-11-15T16:34:38;12.00;99.90
32322;DHT22;61553;48.994;8.940;2022-11-15T16:37:04;12.00;99.90
32322;DHT22;61553;48.994;8.940;2022-11-15T16:39:30;11.90;99.90
32322;DHT22;61553;48.994;8.940;2022-11-15T16:41:57;11.90;99.90
32322;DHT22;61553;48.994;8.940;2022-11-15T16:44:23;11.90;99.90
32322;DHT22;61553;48.994;8.940;2022-11-15T16:46:50;11.90;99.90
32322;DHT22;61553;48.994;8.940;2022-11-15T16:49:19;11.80;99.90
32322;DHT22;61553;48.994;8.940;2022-11-15T16:51:49;11.80;99.90
32322;DHT22;61553;48.994;8.940;2022-11-15T16:54:15;11.80;99.90
32322;DHT22;61553;48.994;8.940;2022-11-15T16:56:41;11.80;99.90
32322;DHT22;61553;48.994;8.940;2022-11-15T16:59:10;11.80;99.90
32322;DHT22;61553;48.994;8.940;2022-11-15T17:01:38;11.80;99.90
32322;DHT22;61553;48.994;8.940;2022-11-15T17:04:14;11.80;99.90
32322;DHT22;61553;48.994;8.940;2022-11-15T17:06:42;11.90;99.90
32322;DHT22;61553;48.994;8.940;2022-11-15T17:09:17;11.90;99.90
32322;DHT22;61553;48.994;8.940;2022-11-15T17:11:43;12.00;99.90
32322;DHT22;61553;48.994;8.940;2022-11-15T17:14:09;11.90;99.90
32322;DHT22;61553;48.994;8.940;2022-11-15T17:16:35;11.90;99.90
32322;DHT22;61553;48.994;8.940;2022-11-15T17:19:03;11.90;99.90
32322;DHT22;61553;48.994;8.940;2022-11-15T17:21:29;11.80;99.90
32322;DHT22;61553;48.994;8.940;2022-11-15T17:23:55;11.70;99.90
32322;DHT22;61553;48.994;8.940;2022-11-15T17:26:23;11.70;99.90
32322;DHT22;61553;48.994;8.940;2022-11-15T17:28:53;11.60;99.90
32322;DHT22;61553;48.994;8.940;2022-11-15T17:31:19;11.60;99.90
32322;DHT22;61553;48.994;8.940;2022-11-15T17:33:45;11.50;99.90
32322;DHT22;61553;48.994;8.940;2022-11-15T17:36:11;11.50;99.90
32322;DHT22;61553;48.994;8.940;2022-11-15T17:38:37;11.50;99.90
32322;DHT22;61553;48.994;8.940;2022-11-15T17:41:09;11.60;99.90
32322;DHT22;61553;48.994;8.940;2022-11-15T17:43:35;11.50;99.90
32322;DHT22;61553;48.994;8.940;2022-11-15T17:46:06;11.50;99.90
32322;DHT22;61553;48.994;8.940;2022-11-15T17:48:32;11.50;99.90
32322;DHT22;61553;48.994;8.940;2022-11-15T17:51:05;11.50;99.90
32322;DHT22;61553;48.994;8.940;2022-11-15T17:53:37;11.50;99.90
32322;DHT22;61553;48.994;8.940;2022-11-15T17:56:04;11.40;99.90
32322;DHT22;61553;48.994;8.940;2022-11-15T17:58:31;11.40;99.90
32322;DHT22;61553;48.994;8.940;2022-11-15T18:01:07;11.50;99.90
32322;DHT22;61553;48.994;8.940;2022-11-15T18:03:36;11.50;99.90
32322;DHT22;61553;48.994;8.940;2022-11-15T18:06:04;11.50;99.90
32322;DHT22;61553;48.994;8.940;2022-11-15T18:08:31;11.50;99.90
32322;DHT22;61553;48.994;8.940;2022-11-15T18:13:28;11.60;99.90